sensor_id;sensor_type;location;lat;lon;timestamp;P1;durP1;ratioP1;P2;durP2;ratioP2
56271;SDS011;42177;48.914;18.160;2024-01-10T00:03:36;51.8;;;29.2;;
56271;SDS011;42177;48.914;18.160;2024-01-10T00:08:36;51.8;;;29.2;;
56271;SDS011;42177;48.914;18.160;2024-01-10T00:13:36;46.5;;;25.8;;
56271;SDS011;42177;48.914;18.160;2024-01-10T00:18:36;46.5;;;25.8;;
56271;SDS011;42177;48.914;18.160;2024-01-10T00:23:36;42.5;;;23.9;;
56271;SDS011;42177;48.914;18.160;2024-01-10T00:28:36;42.5;;;23.9;;
56271;SDS011;42177;48.914;18.160;2024-01-10T00:33:36;39.6;;;23.2;;
56271;SDS011;42177;48.914;18.160;2024-01-10T00:38:36;39.6;;;23.2;;
56271;SDS011;42177;48.914;18.160;2024-01-10T00:43:36;41.3;;;24.1;;
56271;SDS011;42177;48.914;18.160;2024-01-10T00:48:36;41.3;;;24.1;;
56271;SDS011;42177;48.914;18.160;2024-01-10T00:53:36;44.9;;;26.6;;
56271;SDS011;42177;48.914;18.160;2024-01-10T00:58:36;44.9;;;26.6;;
56271;SDS011;42177;48.914;18.160;2024-01-10T01:03:36;45.8;;;25.9;;
56271;SDS011;42177;48.914;18.160;2024-01-10T01:08:36;45.8;;;25.9;;
56271;SDS011;42177;48.914;18.160;2024-01-10T01:13:36;46.6;;;26.4;;
56271;SDS011;42177;48.914;18.160;2024-01-10T01:18:36;46.6;;;26.4;;
56271;SDS011;42177;48.914;18.160;2024-01-10T01:23:36;40.6;;;24.6;;
56271;SDS011;42177;48.914;18.160;2024-01-10T01:28:36;40.6;;;24.6;;
56271;SDS011;42177;48.914;18.160;2024-01-10T01:33:36;38.9;;;21.7;;
56271;SDS011;42177;48.914;18.160;2024-01-10T01:38:36;38.9;;;21.7;;
56271;SDS011;42177;48.914;18.160;2024-01-10T01:43:36;35.6;;;20.1;;
56271;SDS011;42177;48.914;18.160;2024-01-10T01:48:36;35.6;;;20.1;;
56271;SDS011;42177;48.914;18.160;2024-01-10T01:53:36;31;;;18.5;;
56271;SDS011;42177;48.914;18.160;2024-01-10T01:58:36;31;;;18.5;;
56271;SDS011;42177;48.914;18.160;2024-01-10T02:03:36;28.6;;;16;;
56271;SDS011;42177;48.914;18.160;2024-01-10T02:08:36;28.6;;;16;;
56271;SDS011;42177;48.914;18.160;2024-01-10T02:13:36;28.1;;;16.3;;
56271;SDS011;42177;48.914;18.160;2024-01-10T02:18:37;28.1;;;16.3;;
56271;SDS011;42177;48.914;18.160;2024-01-10T02:23:36;27.8;;;16.3;;
56271;SDS011;42177;48.914;18.160;2024-01-10T02:28:36;27.8;;;16.3;;
56271;SDS011;42177;48.914;18.160;2024-01-10T02:33:36;32.8;;;18.3;;
56271;SDS011;42177;48.914;18.160;2024-01-10T02:38:36;32.8;;;18.3;;
56271;SDS011;42177;48.914;18.160;2024-01-10T02:43:36;36.7;;;20.2;;
56271;SDS011;42177;48.914;18.160;2024-01-10T02:48:36;36.7;;;20.2;;
56271;SDS011;42177;48.914;18.160;2024-01-10T02:53:36;38.1;;;21.4;;
56271;SDS011;42177;48.914;18.160;2024-01-10T02:58:36;38.1;;;21.4;;
56271;SDS011;42177;48.914;18.160;2024-01-10T03:03:36;27.2;;;16.1;;
56271;SDS011;42177;48.914;18.160;2024-01-10T03:08:36;27.2;;;16.1;;
56271;SDS011;42177;48.914;18.160;2024-01-10T03:13:36;30.6;;;16.7;;
56271;SDS011;42177;48.914;18.160;2024-01-10T03:18:36;30.6;;;16.7;;
56271;SDS011;42177;48.914;18.160;2024-01-10T03:23:36;30.2;;;17.4;;
56271;SDS011;42177;48.914;18.160;2024-01-10T03:28:36;30.2;;;17.4;;
56271;SDS011;42177;48.914;18.160;2024-01-10T03:33:36;26.3;;;15.3;;
56271;SDS011;42177;48.914;18.160;2024-01-10T03:38:36;26.3;;;15.3;;
56271;SDS011;42177;48.914;18.160;2024-01-10T03:43:36;25.7;;;14.6;;
56271;SDS011;42177;48.914;18.160;2024-01-10T03:48:36;25.7;;;14.6;;
56271;SDS011;42177;48.914;18.160;2024-01-10T03:53:36;24.1;;;15;;
56271;SDS011;42177;48.914;18.160;2024-01-10T03:58:36;24.1;;;15;;
56271;SDS011;42177;48.914;18.160;2024-01-10T04:03:36;24.3;;;14.3;;
56271;SDS011;42177;48.914;18.160;2024-01-10T04:08:36;24.3;;;14.3;;
56271;SDS011;42177;48.914;18.160;2024-01-10T04:13:36;24.7;;;14.9;;
56271;SDS011;42177;48.914;18.160;2024-01-10T04:18:36;24.7;;;14.9;;
56271;SDS011;42177;48.914;18.160;2024-01-10T04:23:36;24.4;;;14.3;;
56271;SDS011;42177;48.914;18.160;2024-01-10T04:28:36;24.4;;;14.3;;
56271;SDS011;42177;48.914;18.160;2024-01-10T04:33:36;24.8;;;14.6;;
56271;SDS011;42177;48.914;18.160;2024-01-10T04:38:36;24.8;;;14.6;;
56271;SDS011;42177;48.914;18.160;2024-01-10T04:43:36;23.2;;;13.3;;
56271;SDS011;42177;48.914;18.160;2024-01-10T04:48:36;23.2;;;13.3;;
56271;SDS011;42177;48.914;18.160;2024-01-10T04:53:36;20.3;;;12.4;;
56271;SDS011;42177;48.914;18.160;2024-01-10T04:58:36;20.3;;;12.4;;
56271;SDS011;42177;48.914;18.160;2024-01-10T05:03:36;22.4;;;13;;
56271;SDS011;42177;48.914;18.160;2024-01-10T05:08:36;22.4;;;13;;
56271;SDS011;42177;48.914;18.160;2024-01-10T05:13:36;22.8;;;13;;
56271;SDS011;42177;48.914;18.160;2024-01-10T05:18:36;22.8;;;13;;
56271;SDS011;42177;48.914;18.160;2024-01-10T05:23:36;22.7;;;12.9;;
56271;SDS011;42177;48.914;18.160;2024-01-10T05:28:36;22.7;;;12.9;;
56271;SDS011;42177;48.914;18.160;2024-01-10T05:33:36;21.5;;;12.5;;
56271;SDS011;42177;48.914;18.160;2024-01-10T05:38:36;21.5;;;12.5;;
56271;SDS011;42177;48.914;18.160;2024-01-10T05:43:36;26.3;;;15.5;;
56271;SDS011;42177;48.914;18.160;2024-01-10T05:48:36;26.3;;;15.5;;
56271;SDS011;42177;48.914;18.160;2024-01-10T05:53:36;26.9;;;15.2;;
56271;SDS011;42177;48.914;18.160;2024-01-10T05:58:36;26.9;;;15.2;;
56271;SDS011;42177;48.914;18.160;2024-01-10T06:03:36;25.8;;;13.9;;
56271;SDS011;42177;48.914;18.160;2024-01-10T06:08:36;25.8;;;13.9;;
56271;SDS011;42177;48.914;18.160;2024-01-10T06:13:36;21.6;;;11.8;;
56271;SDS011;42177;48.914;18.160;2024-01-10T06:18:36;21.6;;;11.8;;
56271;SDS011;42177;48.914;18.160;2024-01-10T06:23:36;21.4;;;11.8;;
56271;SDS011;42177;48.914;18.160;2024-01-10T06:28:36;21.4;;;11.8;;
56271;SDS011;42177;48.914;18.160;2024-01-10T06:33:36;23.7;;;12;;
56271;SDS011;42177;48.914;18.160;2024-01-10T06:38:37;23.7;;;12;;
56271;SDS011;42177;48.914;18.160;2024-01-10T06:43:36;17.7;;;10.8;;
56271;SDS011;42177;48.914;18.160;2024-01-10T06:48:36;17.7;;;10.8;;
56271;SDS011;42177;48.914;18.160;2024-01-10T06:53:36;18.2;;;11.1;;
56271;SDS011;42177;48.914;18.160;2024-01-10T06:58:36;18.2;;;11.1;;
56271;SDS011;42177;48.914;18.160;2024-01-10T07:03:36;21.1;;;12.2;;
56271;SDS011;42177;48.914;18.160;2024-01-10T07:08:36;21.1;;;12.2;;
56271;SDS011;42177;48.914;18.160;2024-01-10T07:13:36;17.1;;;10.5;;
56271;SDS011;42177;48.914;18.160;2024-01-10T07:18:36;17.1;;;10.5;;
56271;SDS011;42177;48.914;18.160;2024-01-10T07:23:36;19;;;11.1;;
56271;SDS011;42177;48.914;18.160;2024-01-10T07:28:36;19;;;11.1;;
56271;SDS011;42177;48.914;18.160;2024-01-10T07:33:36;24.6;;;13;;
56271;SDS011;42177;48.914;18.160;2024-01-10T07:38:36;24.6;;;13;;
56271;SDS011;42177;48.914;18.160;2024-01-10T07:43:36;17.8;;;10.3;;
56271;SDS011;42177;48.914;18.160;2024-01-10T07:48:36;17.8;;;10.3;;
56271;SDS011;42177;48.914;18.160;2024-01-10T07:53:36;20.2;;;11.9;;
56271;SDS011;42177;48.914;18.160;2024-01-10T07:58:36;20.2;;;11.9;;
56271;SDS011;42177;48.914;18.160;2024-01-10T08:03:36;18.3;;;11.8;;
56271;SDS011;42177;48.914;18.160;2024-01-10T08:08:36;18.3;;;11.8;;
56271;SDS011;42177;48.914;18.160;2024-01-10T08:13:36;21.6;;;12.7;;
56271;SDS011;42177;48.914;18.160;2024-01-10T08:18:36;21.6;;;12.7;;
56271;SDS011;42177;48.914;18.160;2024-01-10T08:23:36;20.5;;;12;;
56271;SDS011;42177;48.914;18.160;2024-01-10T08:28:36;20.5;;;12;;
56271;SDS011;42177;48.914;18.160;2024-01-10T08:33:36;19.4;;;12.2;;
56271;SDS011;42177;48.914;18.160;2024-01-10T08:38:36;19.4;;;12.2;;
56271;SDS011;42177;48.914;18.160;2024-01-10T08:43:36;20.9;;;13.8;;
56271;SDS011;42177;48.914;18.160;2024-01-10T08:48:36;20.9;;;13.8;;
56271;SDS011;42177;48.914;18.160;2024-01-10T08:53:36;20.1;;;11.7;;
56271;SDS011;42177;48.914;18.160;2024-01-10T08:58:37;20.1;;;11.7;;
56271;SDS011;42177;48.914;18.160;2024-01-10T09:03:36;18.4;;;11.7;;
56271;SDS011;42177;48.914;18.160;2024-01-10T09:08:36;18.4;;;11.7;;
56271;SDS011;42177;48.914;18.160;2024-01-10T09:13:36;18;;;11.2;;
56271;SDS011;42177;48.914;18.160;2024-01-10T09:18:36;18;;;11.2;;
56271;SDS011;42177;48.914;18.160;2024-01-10T09:23:36;16.1;;;10.4;;
56271;SDS011;42177;48.914;18.160;2024-01-10T09:28:36;16.1;;;10.4;;
56271;SDS011;42177;48.914;18.160;2024-01-10T09:33:36;21.6;;;12.6;;
56271;SDS011;42177;48.914;18.160;2024-01-10T09:38:36;21.6;;;12.6;;
56271;SDS011;42177;48.914;18.160;2024-01-10T09:43:36;18;;;11.1;;
56271;SDS011;42177;48.914;18.160;2024-01-10T09:48:36;18;;;11.1;;
56271;SDS011;42177;48.914;18.160;2024-01-10T09:53:36;15.6;;;10;;
56271;SDS011;42177;48.914;18.160;2024-01-10T09:58:36;15.6;;;10;;
56271;SDS011;42177;48.914;18.160;2024-01-10T10:03:36;19.2;;;12;;
56271;SDS011;42177;48.914;18.160;2024-01-10T10:08:36;19.2;;;12;;
56271;SDS011;42177;48.914;18.160;2024-01-10T10:13:36;21.2;;;12.7;;
56271;SDS011;42177;48.914;18.160;2024-01-10T10:18:36;21.2;;;12.7;;
56271;SDS011;42177;48.914;18.160;2024-01-10T10:23:36;21.8;;;13.5;;
56271;SDS011;42177;48.914;18.160;2024-01-10T10:28:36;21.8;;;13.5;;
56271;SDS011;42177;48.914;18.160;2024-01-10T10:33:36;22.4;;;13.2;;
56271;SDS011;42177;48.914;18.160;2024-01-10T10:38:36;22.4;;;13.2;;
56271;SDS011;42177;48.914;18.160;2024-01-10T10:43:37;20.3;;;13.8;;
56271;SDS011;42177;48.914;18.160;2024-01-10T10:48:36;20.3;;;13.8;;
56271;SDS011;42177;48.914;18.160;2024-01-10T10:53:37;24.6;;;14.1;;
56271;SDS011;42177;48.914;18.160;2024-01-10T10:58:37;24.6;;;14.1;;
56271;SDS011;42177;48.914;18.160;2024-01-10T11:03:37;22.2;;;13.4;;
56271;SDS011;42177;48.914;18.160;2024-01-10T11:08:38;22.2;;;13.4;;
56271;SDS011;42177;48.914;18.160;2024-01-10T11:13:39;20.2;;;13.1;;
56271;SDS011;42177;48.914;18.160;2024-01-10T11:18:40;20.2;;;13.1;;
56271;SDS011;42177;48.914;18.160;2024-01-10T11:23:38;19.6;;;13.4;;
56271;SDS011;42177;48.914;18.160;2024-01-10T11:28:36;19.6;;;13.4;;
56271;SDS011;42177;48.914;18.160;2024-01-10T11:33:36;20.2;;;13.5;;
56271;SDS011;42177;48.914;18.160;2024-01-10T11:38:45;20.2;;;13.5;;
56271;SDS011;42177;48.914;18.160;2024-01-10T11:43:37;19.8;;;12.3;;
56271;SDS011;42177;48.914;18.160;2024-01-10T11:48:37;19.8;;;12.3;;
56271;SDS011;42177;48.914;18.160;2024-01-10T11:53:38;18.1;;;11.1;;
56271;SDS011;42177;48.914;18.160;2024-01-10T11:58:51;18.1;;;11.1;;
56271;SDS011;42177;48.914;18.160;2024-01-10T12:03:36;14;;;9.4;;
56271;SDS011;42177;48.914;18.160;2024-01-10T12:08:36;14;;;9.4;;
56271;SDS011;42177;48.914;18.160;2024-01-10T12:13:36;11.8;;;8;;
56271;SDS011;42177;48.914;18.160;2024-01-10T12:18:36;11.8;;;8;;
56271;SDS011;42177;48.914;18.160;2024-01-10T12:23:36;11.8;;;8;;
56271;SDS011;42177;48.914;18.160;2024-01-10T12:28:36;11.8;;;8;;
56271;SDS011;42177;48.914;18.160;2024-01-10T12:33:36;13.1;;;9.1;;
56271;SDS011;42177;48.914;18.160;2024-01-10T12:38:36;13.1;;;9.1;;
56271;SDS011;42177;48.914;18.160;2024-01-10T12:43:36;17.4;;;11.9;;
56271;SDS011;42177;48.914;18.160;2024-01-10T12:48:36;17.4;;;11.9;;
56271;SDS011;42177;48.914;18.160;2024-01-10T12:53:37;18.9;;;12.7;;
56271;SDS011;42177;48.914;18.160;2024-01-10T12:58:37;18.9;;;12.7;;
56271;SDS011;42177;48.914;18.160;2024-01-10T13:03:36;31.8;;;22.9;;
56271;SDS011;42177;48.914;18.160;2024-01-10T13:08:36;31.8;;;22.9;;
56271;SDS011;42177;48.914;18.160;2024-01-10T13:13:36;28.8;;;20.4;;
56271;SDS011;42177;48.914;18.160;2024-01-10T13:18:36;28.8;;;20.4;;
56271;SDS011;42177;48.914;18.160;2024-01-10T13:23:36;18.4;;;13.6;;
56271;SDS011;42177;48.914;18.160;2024-01-10T13:28:36;18.4;;;13.6;;
56271;SDS011;42177;48.914;18.160;2024-01-10T13:33:36;14.8;;;9.7;;
56271;SDS011;42177;48.914;18.160;2024-01-10T13:38:36;14.8;;;9.7;;
56271;SDS011;42177;48.914;18.160;2024-01-10T13:43:36;14.6;;;8.8;;
56271;SDS011;42177;48.914;18.160;2024-01-10T13:48:36;14.6;;;8.8;;
56271;SDS011;42177;48.914;18.160;2024-01-10T13:53:36;14.9;;;9.1;;
56271;SDS011;42177;48.914;18.160;2024-01-10T13:58:36;14.9;;;9.1;;
56271;SDS011;42177;48.914;18.160;2024-01-10T14:03:36;15;;;8.8;;
56271;SDS011;42177;48.914;18.160;2024-01-10T14:08:36;15;;;8.8;;
56271;SDS011;42177;48.914;18.160;2024-01-10T14:13:36;15;;;9.3;;
56271;SDS011;42177;48.914;18.160;2024-01-10T14:18:36;15;;;9.3;;
56271;SDS011;42177;48.914;18.160;2024-01-10T14:23:36;13.7;;;8.8;;
56271;SDS011;42177;48.914;18.160;2024-01-10T14:28:36;13.7;;;8.8;;
56271;SDS011;42177;48.914;18.160;2024-01-10T14:33:36;14.9;;;9.4;;
56271;SDS011;42177;48.914;18.160;2024-01-10T14:38:37;14.9;;;9.4;;
56271;SDS011;42177;48.914;18.160;2024-01-10T14:43:36;20.1;;;12.7;;
56271;SDS011;42177;48.914;18.160;2024-01-10T14:48:36;20.1;;;12.7;;
56271;SDS011;42177;48.914;18.160;2024-01-10T14:53:36;18.9;;;11.3;;
56271;SDS011;42177;48.914;18.160;2024-01-10T14:58:36;18.9;;;11.3;;
56271;SDS011;42177;48.914;18.160;2024-01-10T15:03:36;19.2;;;11.6;;
56271;SDS011;42177;48.914;18.160;2024-01-10T15:08:36;19.2;;;11.6;;
56271;SDS011;42177;48.914;18.160;2024-01-10T15:13:36;18.1;;;11.5;;
56271;SDS011;42177;48.914;18.160;2024-01-10T15:18:36;18.1;;;11.5;;
56271;SDS011;42177;48.914;18.160;2024-01-10T15:23:36;18;;;11.4;;
56271;SDS011;42177;48.914;18.160;2024-01-10T15:28:36;18;;;11.4;;
56271;SDS011;42177;48.914;18.160;2024-01-10T15:33:36;17.2;;;10.9;;
56271;SDS011;42177;48.914;18.160;2024-01-10T15:38:36;17.2;;;10.9;;
56271;SDS011;42177;48.914;18.160;2024-01-10T15:43:36;16.7;;;11;;
56271;SDS011;42177;48.914;18.160;2024-01-10T15:48:36;16.7;;;11;;
56271;SDS011;42177;48.914;18.160;2024-01-10T15:53:36;21.3;;;11;;
56271;SDS011;42177;48.914;18.160;2024-01-10T15:58:36;21.3;;;11;;
56271;SDS011;42177;48.914;18.160;2024-01-10T16:03:36;15.7;;;10.5;;
56271;SDS011;42177;48.914;18.160;2024-01-10T16:08:36;15.7;;;10.5;;
56271;SDS011;42177;48.914;18.160;2024-01-10T16:13:36;58;;;37.3;;
56271;SDS011;42177;48.914;18.160;2024-01-10T16:18:36;58;;;37.3;;
56271;SDS011;42177;48.914;18.160;2024-01-10T16:23:36;18.2;;;11.3;;
56271;SDS011;42177;48.914;18.160;2024-01-10T16:28:36;18.2;;;11.3;;
56271;SDS011;42177;48.914;18.160;2024-01-10T16:33:36;21.7;;;13;;
56271;SDS011;42177;48.914;18.160;2024-01-10T16:38:36;21.7;;;13;;
56271;SDS011;42177;48.914;18.160;2024-01-10T16:43:36;30.8;;;18.4;;
56271;SDS011;42177;48.914;18.160;2024-01-10T16:48:36;30.8;;;18.4;;
56271;SDS011;42177;48.914;18.160;2024-01-10T16:53:36;26.8;;;16.9;;
56271;SDS011;42177;48.914;18.160;2024-01-10T16:58:36;26.8;;;16.9;;
56271;SDS011;42177;48.914;18.160;2024-01-10T17:03:36;34;;;20.6;;
56271;SDS011;42177;48.914;18.160;2024-01-10T17:08:36;34;;;20.6;;
56271;SDS011;42177;48.914;18.160;2024-01-10T17:13:36;34.8;;;21.3;;
56271;SDS011;42177;48.914;18.160;2024-01-10T17:18:36;34.8;;;21.3;;
56271;SDS011;42177;48.914;18.160;2024-01-10T17:23:36;32;;;20.7;;
56271;SDS011;42177;48.914;18.160;2024-01-10T17:28:36;32;;;20.7;;
56271;SDS011;42177;48.914;18.160;2024-01-10T17:33:36;38.6;;;25.7;;
56271;SDS011;42177;48.914;18.160;2024-01-10T17:38:36;38.6;;;25.7;;
56271;SDS011;42177;48.914;18.160;2024-01-10T17:43:36;34.4;;;22.6;;
56271;SDS011;42177;48.914;18.160;2024-01-10T17:48:36;34.4;;;22.6;;
56271;SDS011;42177;48.914;18.160;2024-01-10T17:53:36;40.4;;;25.9;;
56271;SDS011;42177;48.914;18.160;2024-01-10T17:58:36;40.4;;;25.9;;
56271;SDS011;42177;48.914;18.160;2024-01-10T18:03:36;42.6;;;27.2;;
56271;SDS011;42177;48.914;18.160;2024-01-10T18:08:36;42.6;;;27.2;;
56271;SDS011;42177;48.914;18.160;2024-01-10T18:13:36;44.4;;;28.3;;
56271;SDS011;42177;48.914;18.160;2024-01-10T18:18:36;44.4;;;28.3;;
56271;SDS011;42177;48.914;18.160;2024-01-10T18:23:36;45.7;;;27.1;;
56271;SDS011;42177;48.914;18.160;2024-01-10T18:28:36;45.7;;;27.1;;
56271;SDS011;42177;48.914;18.160;2024-01-10T18:33:36;48.2;;;30.4;;
56271;SDS011;42177;48.914;18.160;2024-01-10T18:38:36;48.2;;;30.4;;
56271;SDS011;42177;48.914;18.160;2024-01-10T18:43:36;47.3;;;29.5;;
56271;SDS011;42177;48.914;18.160;2024-01-10T18:48:36;47.3;;;29.5;;
56271;SDS011;42177;48.914;18.160;2024-01-10T18:53:36;40;;;26.1;;
56271;SDS011;42177;48.914;18.160;2024-01-10T18:58:36;40;;;26.1;;
56271;SDS011;42177;48.914;18.160;2024-01-10T19:03:36;43;;;27.6;;
56271;SDS011;42177;48.914;18.160;2024-01-10T19:08:36;43;;;27.6;;
56271;SDS011;42177;48.914;18.160;2024-01-10T19:13:36;50.9;;;31.9;;
56271;SDS011;42177;48.914;18.160;2024-01-10T19:18:37;50.9;;;31.9;;
56271;SDS011;42177;48.914;18.160;2024-01-10T19:23:37;110.8;;;65.7;;
56271;SDS011;42177;48.914;18.160;2024-01-10T19:28:36;110.8;;;65.7;;
56271;SDS011;42177;48.914;18.160;2024-01-10T19:33:36;52.9;;;33.5;;
56271;SDS011;42177;48.914;18.160;2024-01-10T19:38:36;52.9;;;33.5;;
56271;SDS011;42177;48.914;18.160;2024-01-10T19:43:37;48.6;;;30.9;;
56271;SDS011;42177;48.914;18.160;2024-01-10T19:48:36;48.6;;;30.9;;
56271;SDS011;42177;48.914;18.160;2024-01-10T19:53:36;46.1;;;29.2;;
56271;SDS011;42177;48.914;18.160;2024-01-10T19:58:36;46.1;;;29.2;;
56271;SDS011;42177;48.914;18.160;2024-01-10T20:03:36;42.3;;;27;;
56271;SDS011;42177;48.914;18.160;2024-01-10T20:08:36;42.3;;;27;;
56271;SDS011;42177;48.914;18.160;2024-01-10T20:13:36;55.2;;;34.5;;
56271;SDS011;42177;48.914;18.160;2024-01-10T20:18:36;55.2;;;34.5;;
56271;SDS011;42177;48.914;18.160;2024-01-10T20:23:36;49.3;;;30.7;;
56271;SDS011;42177;48.914;18.160;2024-01-10T20:28:36;49.3;;;30.7;;
56271;SDS011;42177;48.914;18.160;2024-01-10T20:33:36;48.1;;;29.4;;
56271;SDS011;42177;48.914;18.160;2024-01-10T20:38:36;48.1;;;29.4;;
56271;SDS011;42177;48.914;18.160;2024-01-10T20:43:36;48.5;;;28.8;;
56271;SDS011;42177;48.914;18.160;2024-01-10T20:48:36;48.5;;;28.8;;
56271;SDS011;42177;48.914;18.160;2024-01-10T20:53:36;46.3;;;26.8;;
56271;SDS011;42177;48.914;18.160;2024-01-10T20:58:36;46.3;;;26.8;;
56271;SDS011;42177;48.914;18.160;2024-01-10T21:03:36;44.5;;;26.9;;
56271;SDS011;42177;48.914;18.160;2024-01-10T21:08:36;44.5;;;26.9;;
56271;SDS011;42177;48.914;18.160;2024-01-10T21:13:36;51.9;;;31.5;;
56271;SDS011;42177;48.914;18.160;2024-01-10T21:18:36;51.9;;;31.5;;
56271;SDS011;42177;48.914;18.160;2024-01-10T21:23:36;53.5;;;33.2;;
56271;SDS011;42177;48.914;18.160;2024-01-10T21:28:36;53.5;;;33.2;;
56271;SDS011;42177;48.914;18.160;2024-01-10T21:33:36;54.1;;;33.3;;
56271;SDS011;42177;48.914;18.160;2024-01-10T21:38:36;54.1;;;33.3;;
56271;SDS011;42177;48.914;18.160;2024-01-10T21:43:36;53.7;;;33;;
56271;SDS011;42177;48.914;18.160;2024-01-10T21:48:36;53.7;;;33;;
56271;SDS011;42177;48.914;18.160;2024-01-10T21:53:36;55.1;;;33.2;;
56271;SDS011;42177;48.914;18.160;2024-01-10T21:58:36;55.1;;;33.2;;
56271;SDS011;42177;48.914;18.160;2024-01-10T22:03:37;52.4;;;31.9;;
56271;SDS011;42177;48.914;18.160;2024-01-10T22:08:36;52.4;;;31.9;;
56271;SDS011;42177;48.914;18.160;2024-01-10T22:13:36;54.6;;;32.5;;
56271;SDS011;42177;48.914;18.160;2024-01-10T22:18:36;54.6;;;32.5;;
56271;SDS011;42177;48.914;18.160;2024-01-10T22:23:36;61.2;;;37.5;;
56271;SDS011;42177;48.914;18.160;2024-01-10T22:28:36;61.2;;;37.5;;
56271;SDS011;42177;48.914;18.160;2024-01-10T22:33:36;64.5;;;37.9;;
56271;SDS011;42177;48.914;18.160;2024-01-10T22:38:36;64.5;;;37.9;;
56271;SDS011;42177;48.914;18.160;2024-01-10T22:43:36;59.3;;;34.7;;
56271;SDS011;42177;48.914;18.160;2024-01-10T22:48:36;59.3;;;34.7;;
56271;SDS011;42177;48.914;18.160;2024-01-10T22:53:36;61.1;;;35.8;;
56271;SDS011;42177;48.914;18.160;2024-01-10T22:58:36;61.1;;;35.8;;
56271;SDS011;42177;48.914;18.160;2024-01-10T23:03:36;61;;;35.6;;
56271;SDS011;42177;48.914;18.160;2024-01-10T23:08:36;61;;;35.6;;
56271;SDS011;42177;48.914;18.160;2024-01-10T23:13:36;56.9;;;33;;
56271;SDS011;42177;48.914;18.160;2024-01-10T23:18:36;56.9;;;33;;
56271;SDS011;42177;48.914;18.160;2024-01-10T23:23:36;50.6;;;29.6;;
56271;SDS011;42177;48.914;18.160;2024-01-10T23:28:37;50.6;;;29.6;;
56271;SDS011;42177;48.914;18.160;2024-01-10T23:33:36;43.3;;;26.5;;
56271;SDS011;42177;48.914;18.160;2024-01-10T23:38:36;43.3;;;26.5;;
56271;SDS011;42177;48.914;18.160;2024-01-10T23:43:36;42.4;;;24.8;;
56271;SDS011;42177;48.914;18.160;2024-01-10T23:48:36;42.4;;;24.8;;
56271;SDS011;42177;48.914;18.160;2024-01-10T23:53:36;44.5;;;25.8;;
56271;SDS011;42177;48.914;18.160;2024-01-10T23:58:36;44.5;;;25.8;;
